createdAt,value
2019-06-26T00:00:45.484Z,101651.37
2019-06-26T00:01:51.168Z,101653.26
2019-06-26T00:02:56.191Z,101653.26
2019-06-26T00:04:02.298Z,101654.31
2019-06-26T00:05:07.613Z,101663.87
2019-06-26T00:06:13.283Z,101658.09
2019-06-26T00:07:18.436Z,101652.86
2019-06-26T00:08:24.050Z,101658.53
2019-06-26T00:09:29.744Z,101657.69
2019-06-26T00:10:35.635Z,101659.61
2019-06-26T00:11:40.597Z,101657.93
2019-06-26T00:12:46.161Z,101660.06
2019-06-26T00:13:52.713Z,101663.31
2019-06-26T00:14:58.560Z,101666.78
2019-06-26T00:16:03.661Z,101665.94
2019-06-26T00:17:09.488Z,101667.74
2019-06-26T00:18:14.866Z,101673.20
2019-06-26T00:19:20.685Z,101676.38
2019-06-26T00:20:25.810Z,101678.83
2019-06-26T00:21:31.797Z,101678.50
2019-06-26T00:22:36.682Z,101682.28
2019-06-26T00:23:42.304Z,101674.61
2019-06-26T00:24:47.230Z,101683.05
2019-06-26T00:25:52.766Z,101678.63
2019-06-26T00:26:57.778Z,101683.25
2019-06-26T00:28:03.534Z,101687.55
2019-06-26T00:29:08.507Z,101688.07
2019-06-26T00:30:15.093Z,101691.01
2019-06-26T00:31:20.223Z,101688.52
2019-06-26T00:32:25.846Z,101693.66
2019-06-26T00:33:31.091Z,101695.78
2019-06-26T00:34:36.905Z,101694.62
2019-06-26T00:35:41.913Z,101695.70
2019-06-26T00:36:47.540Z,101702.20
2019-06-26T00:37:52.502Z,101704.61
2019-06-26T00:38:58.254Z,101706.41
2019-06-26T00:40:03.584Z,101698.98
2019-06-26T00:41:09.162Z,101700.78
2019-06-26T00:42:14.211Z,101696.05
2019-06-26T00:43:20.092Z,101704.47
2019-06-26T00:44:25.281Z,101697.84
2019-06-26T00:45:30.899Z,101696.92
2019-06-26T00:46:36.567Z,101694.42
2019-06-26T00:47:42.309Z,101697.03
2019-06-26T00:48:47.411Z,101693.70
2019-06-26T00:49:53.262Z,101690.64
2019-06-26T00:50:58.370Z,101693.89
2019-06-26T00:52:04.065Z,101693.81
2019-06-26T00:53:09.463Z,101694.89
2019-06-26T00:54:15.032Z,101693.52
2019-06-26T00:55:20.403Z,101690.15
2019-06-26T00:56:26.189Z,101693.92
2019-06-26T00:57:31.304Z,101696.36
2019-06-26T00:58:36.973Z,101693.31
2019-06-26T00:59:41.968Z,101696.56
2019-06-26T01:00:52.046Z,101698.77
2019-06-26T01:01:57.332Z,101696.27
2019-06-26T01:03:02.915Z,101700.89
2019-06-26T01:04:12.539Z,101695.72
2019-06-26T01:05:18.389Z,101700.89
2019-06-26T01:07:19.093Z,101701.94
2019-06-26T01:08:24.979Z,101705.70
2019-06-26T01:09:30.151Z,101701.11
2019-06-26T01:10:35.634Z,101703.84
2019-06-26T01:11:40.660Z,101700.50
2019-06-26T01:12:46.624Z,101706.48
2019-06-26T01:13:58.041Z,101697.13
2019-06-26T01:15:01.983Z,101700.94
2019-06-26T01:16:07.050Z,101695.88
2019-06-26T01:17:12.839Z,101695.23
2019-06-26T01:18:17.757Z,101703.64
2019-06-26T01:19:23.357Z,101701.96
2019-06-26T01:20:28.854Z,101704.37
2019-06-26T01:21:34.485Z,101701.34
2019-06-26T01:22:39.599Z,101704.27
2019-06-26T01:23:45.114Z,101703.95
2019-06-26T01:24:50.083Z,101700.09
2019-06-26T01:25:56.130Z,101703.02
2019-06-26T01:27:01.143Z,101704.09
2019-06-26T01:28:07.019Z,101707.86
2019-06-26T01:29:11.934Z,101706.50
2019-06-26T01:30:18.148Z,101704.81
2019-06-26T01:31:23.280Z,101707.25
2019-06-26T01:32:28.874Z,101708.29
2019-06-26T01:33:33.834Z,101708.29
2019-06-26T01:34:39.917Z,101711.22
2019-06-26T01:35:44.877Z,101716.91
2019-06-26T01:36:50.706Z,101717.42
2019-06-26T01:37:55.676Z,101715.22
2019-06-26T01:39:01.286Z,101714.08
2019-06-26T01:40:06.921Z,101720.58
2019-06-26T01:41:12.513Z,101714.28
2019-06-26T01:42:17.423Z,101714.70
2019-06-26T01:44:26.236Z,101711.23
2019-06-26T01:45:32.228Z,101710.81
2019-06-26T01:46:37.149Z,101710.53
2019-06-26T01:47:43.273Z,101713.77
2019-06-26T01:48:48.413Z,101711.25
2019-06-26T01:49:53.915Z,101711.25
2019-06-26T01:50:58.813Z,101712.31
2019-06-26T01:52:04.494Z,101710.95
2019-06-26T01:53:09.665Z,101707.06
2019-06-26T01:54:15.173Z,101707.80
2019-06-26T01:55:20.142Z,101713.16
2019-06-26T01:56:25.914Z,101709.89
2019-06-26T01:57:30.917Z,101710.63
2019-06-26T01:58:36.462Z,101714.63
2019-06-26T01:59:41.387Z,101717.03
2019-06-26T02:00:46.943Z,101707.72
2019-06-26T02:01:54.187Z,101718.07
2019-06-26T02:02:59.995Z,101716.41
2019-06-26T02:04:05.006Z,101711.16
2019-06-26T02:05:11.440Z,101714.11
2019-06-26T02:06:16.789Z,101717.87
2019-06-26T02:07:22.380Z,101717.23
2019-06-26T02:08:27.284Z,101712.49
2019-06-26T02:09:32.796Z,101720.34
2019-06-26T02:10:37.847Z,101717.33
2019-06-26T02:11:43.584Z,101723.81
2019-06-26T02:12:48.602Z,101729.27
2019-06-26T02:13:54.325Z,101723.72
2019-06-26T02:14:59.233Z,101722.55
2019-06-26T02:16:04.903Z,101729.07
2019-06-26T02:17:09.914Z,101731.14
2019-06-26T02:18:36.994Z,101728.13
2019-06-26T02:19:42.140Z,101735.98
2019-06-26T02:20:47.670Z,101732.61
2019-06-26T02:21:52.976Z,101736.17
2019-06-26T02:22:58.432Z,101731.98
2019-06-26T02:24:03.446Z,101734.39
2019-06-26T02:25:09.310Z,101734.39
2019-06-26T02:26:14.405Z,101733.24
2019-06-26T02:27:19.914Z,101733.24
2019-06-26T02:28:25.004Z,101741.62
2019-06-26T02:29:30.723Z,101739.96
2019-06-26T02:30:35.576Z,101740.48
2019-06-26T02:31:41.162Z,101738.88
2019-06-26T02:32:46.436Z,101744.47
2019-06-26T02:33:51.958Z,101745.50
2019-06-26T02:34:56.890Z,101745.18
2019-06-26T02:36:02.466Z,101748.94
2019-06-26T02:37:07.381Z,101742.87
2019-06-26T02:38:12.910Z,101749.36
2019-06-26T02:39:17.899Z,101747.38
2019-06-26T02:40:23.569Z,101748.11
2019-06-26T02:41:28.652Z,101734.67
2019-06-26T02:42:34.521Z,101734.67
2019-06-26T02:43:39.735Z,101747.88
2019-06-26T02:44:52.902Z,101752.70
2019-06-26T02:45:51.970Z,101746.93
2019-06-26T02:47:17.581Z,101748.93
2019-06-26T02:48:04.258Z,101752.80
2019-06-26T02:49:09.792Z,101756.55
2019-06-26T02:50:14.770Z,101758.98
2019-06-26T02:51:20.295Z,101759.50
2019-06-26T02:52:25.479Z,101759.69
2019-06-26T02:53:32.934Z,101760.75
2019-06-26T02:54:37.890Z,101759.59
2019-06-26T02:55:43.546Z,101762.31
2019-06-26T02:56:48.814Z,101762.53
2019-06-26T02:57:54.299Z,101762.72
2019-06-26T02:58:59.772Z,101762.91
2019-06-26T03:00:06.682Z,101772.45
2019-06-26T03:01:11.736Z,101767.73
2019-06-26T03:02:17.205Z,101768.22
2019-06-26T03:03:22.310Z,101765.72
2019-06-26T03:04:28.116Z,101765.39
2019-06-26T03:05:33.258Z,101766.42
2019-06-26T03:06:38.841Z,101769.15
2019-06-26T03:07:44.110Z,101770.73
2019-06-26T03:08:50.094Z,101774.49
2019-06-26T03:09:55.064Z,101772.28
2019-06-26T03:11:00.659Z,101781.52
2019-06-26T03:12:05.703Z,101773.02
2019-06-26T03:13:11.251Z,101774.57
2019-06-26T03:14:16.158Z,101764.50
2019-06-26T03:15:21.844Z,101764.50
2019-06-26T03:16:27.066Z,101773.11
2019-06-26T03:17:33.120Z,101774.98
2019-06-26T03:18:38.426Z,101779.58
2019-06-26T03:19:44.187Z,101779.58
2019-06-26T03:20:52.289Z,101780.65
2019-06-26T03:21:57.881Z,101770.02
2019-06-26T03:23:03.086Z,101770.02
2019-06-26T03:24:08.601Z,101784.41
2019-06-26T03:25:13.835Z,101783.78
2019-06-26T03:26:23.052Z,101783.45
2019-06-26T03:27:27.994Z,101785.84
2019-06-26T03:28:33.506Z,101784.19
2019-06-26T03:29:38.482Z,101781.84
2019-06-26T03:30:44.149Z,101784.56
2019-06-26T03:31:49.429Z,101776.17
2019-06-26T03:32:54.919Z,101782.91
2019-06-26T03:34:00.039Z,101790.75
2019-06-26T03:35:07.056Z,101788.02
2019-06-26T03:36:12.206Z,101786.44
2019-06-26T03:37:17.775Z,101793.14
2019-06-26T03:38:22.908Z,101788.84
2019-06-26T03:39:28.416Z,101797.73
2019-06-26T03:40:33.371Z,101797.73
2019-06-26T03:41:39.109Z,101807.16
2019-06-26T03:42:44.130Z,101807.16
2019-06-26T03:43:49.903Z,101806.31
2019-06-26T03:44:54.837Z,101806.31
2019-06-26T03:46:00.604Z,101806.31
2019-06-26T03:47:05.947Z,101818.05
2019-06-26T03:48:11.706Z,101814.70
2019-06-26T03:49:16.609Z,101806.83
2019-06-26T03:50:22.214Z,101820.66
2019-06-26T03:51:27.496Z,101820.66
2019-06-26T03:52:33.251Z,101823.59
2019-06-26T03:53:38.247Z,101823.59
2019-06-26T03:54:43.810Z,101814.03
2019-06-26T03:55:48.724Z,101823.97
2019-06-26T03:56:54.250Z,101824.52
2019-06-26T03:57:59.176Z,101826.39
2019-06-26T03:59:04.859Z,101826.39
2019-06-26T04:00:11.386Z,101817.67
2019-06-26T04:01:16.948Z,101817.67
2019-06-26T04:02:22.191Z,101829.81
2019-06-26T04:03:28.215Z,101829.81
2019-06-26T04:04:33.301Z,101832.42
2019-06-26T04:05:38.985Z,101828.56
2019-06-26T04:06:44.106Z,101828.56
2019-06-26T04:07:49.595Z,101827.83
2019-06-26T04:08:54.922Z,101830.55
2019-06-26T04:10:00.733Z,101828.67
2019-06-26T04:11:05.641Z,101828.67
2019-06-26T04:12:11.463Z,101831.58
2019-06-26T04:13:19.587Z,101834.52
2019-06-26T04:14:25.126Z,101836.40
2019-06-26T04:15:41.452Z,101839.84
2019-06-26T04:16:37.802Z,101839.84
2019-06-26T04:17:43.201Z,101845.30
2019-06-26T04:18:48.789Z,101842.23
2019-06-26T04:19:53.851Z,101842.23
2019-06-26T04:20:59.476Z,101842.23
2019-06-26T04:22:04.556Z,101844.23
2019-06-26T04:23:10.139Z,101844.23
2019-06-26T04:24:15.159Z,101840.55
2019-06-26T04:25:20.633Z,101840.55
2019-06-26T04:26:25.831Z,101848.83
2019-06-26T04:27:31.537Z,101867.19
2019-06-26T04:28:36.505Z,101854.82
2019-06-26T04:29:42.353Z,101866.00
2019-06-26T04:30:47.355Z,101859.53
2019-06-26T04:31:52.905Z,101866.00
2019-06-26T04:32:57.895Z,101862.33
2019-06-26T04:34:03.601Z,101849.75
2019-06-26T04:35:08.989Z,101862.98
2019-06-26T04:36:14.588Z,101857.80
2019-06-26T04:37:19.756Z,101857.80
2019-06-26T04:38:25.358Z,101864.93
2019-06-26T04:39:30.294Z,101860.80
2019-06-26T04:40:36.324Z,101860.80
2019-06-26T04:41:41.263Z,101854.52
2019-06-26T04:42:46.998Z,101854.52
2019-06-26T04:43:51.915Z,101864.30
2019-06-26T04:44:57.744Z,101862.34
2019-06-26T04:46:02.652Z,101872.31
2019-06-26T04:47:08.392Z,101873.89
2019-06-26T04:48:13.336Z,101879.85
2019-06-26T04:49:18.836Z,101880.36
2019-06-26T04:50:24.009Z,101880.36
2019-06-26T04:51:29.528Z,101879.00
2019-06-26T04:52:34.631Z,101879.00
2019-06-26T04:53:40.500Z,101871.23
2019-06-26T04:54:46.046Z,101879.85
2019-06-26T04:55:51.540Z,101877.13
2019-06-26T04:56:56.560Z,101871.75
2019-06-26T04:58:02.374Z,101876.28
2019-06-26T04:59:07.403Z,101876.28
2019-06-26T05:00:15.305Z,101875.77
2019-06-26T05:01:20.319Z,101876.73
2019-06-26T05:02:25.879Z,101885.22
2019-06-26T05:03:30.896Z,101880.08
2019-06-26T05:04:36.578Z,101876.55
2019-06-26T05:05:44.451Z,101881.59
2019-06-26T05:06:49.288Z,101881.59
2019-06-26T05:07:54.521Z,101874.34
2019-06-26T05:09:00.144Z,101883.91
2019-06-26T05:10:05.989Z,101887.71
2019-06-26T05:11:12.818Z,101887.71
2019-06-26T05:12:17.884Z,101883.95
2019-06-26T05:13:23.376Z,101882.24
2019-06-26T05:14:28.420Z,101886.59
2019-06-26T05:15:34.168Z,101886.59
2019-06-26T05:16:39.208Z,101883.80
2019-06-26T05:17:44.698Z,101887.48
2019-06-26T05:18:49.633Z,101889.09
2019-06-26T05:19:55.199Z,101890.86
2019-06-26T05:21:00.237Z,101888.58
2019-06-26T05:22:05.803Z,101888.20
2019-06-26T05:23:10.886Z,101893.98
2019-06-26T05:24:16.391Z,101891.92
2019-06-26T05:25:21.297Z,101896.63
2019-06-26T05:26:27.169Z,101892.55
2019-06-26T05:27:32.138Z,101901.05
2019-06-26T05:28:37.864Z,101892.55
2019-06-26T05:29:42.875Z,101892.47
2019-06-26T05:30:48.511Z,101899.91
2019-06-26T05:31:53.429Z,101903.59
2019-06-26T05:32:58.955Z,101898.69
2019-06-26T05:34:04.354Z,101903.87
2019-06-26T05:35:10.304Z,101899.66
2019-06-26T05:36:15.559Z,101899.15
2019-06-26T05:37:21.242Z,101904.52
2019-06-26T05:38:26.139Z,101903.27
2019-06-26T05:39:31.838Z,101900.64
2019-06-26T05:40:36.794Z,101900.97
2019-06-26T05:41:42.265Z,101907.89
2019-06-26T05:42:47.255Z,101900.89
2019-06-26T05:43:52.722Z,101904.56
2019-06-26T05:44:57.771Z,101909.28
2019-06-26T05:46:03.589Z,101911.59
2019-06-26T05:47:08.677Z,101914.98
2019-06-26T05:48:14.291Z,101915.16
2019-06-26T05:49:19.269Z,101920.42
2019-06-26T05:50:25.195Z,101917.70
2019-06-26T05:51:30.586Z,101920.20
2019-06-26T05:52:36.706Z,101922.41
2019-06-26T05:53:41.620Z,101920.34
2019-06-26T05:54:47.313Z,101913.83
2019-06-26T05:55:52.271Z,101921.63
2019-06-26T05:56:57.803Z,101918.70
2019-06-26T05:58:02.805Z,101922.57
2019-06-26T05:59:08.302Z,101924.59
2019-06-26T06:00:13.606Z,101924.59
2019-06-26T06:01:19.587Z,101920.28
2019-06-26T06:02:25.180Z,101921.45
2019-06-26T06:03:30.764Z,101927.11
2019-06-26T06:04:35.910Z,101926.70
2019-06-26T06:05:41.672Z,101925.33
2019-06-26T06:06:46.998Z,101927.87
2019-06-26T06:07:52.663Z,101925.98
2019-06-26T06:08:57.734Z,101935.02
2019-06-26T06:10:03.465Z,101935.83
2019-06-26T06:11:08.500Z,101940.77
2019-06-26T06:12:14.145Z,101941.84
2019-06-26T06:13:19.072Z,101947.06
2019-06-26T06:14:24.974Z,101945.37
2019-06-26T06:15:29.953Z,101946.45
2019-06-26T06:16:46.777Z,101947.48
2019-06-26T06:17:42.206Z,101943.06
2019-06-26T06:18:47.969Z,101939.81
2019-06-26T06:19:53.173Z,101947.39
2019-06-26T06:20:58.901Z,101952.02
2019-06-26T06:22:04.390Z,101947.00
2019-06-26T06:23:10.010Z,101951.28
2019-06-26T06:24:14.989Z,101952.64
2019-06-26T06:25:20.594Z,101948.55
2019-06-26T06:26:25.838Z,101954.33
2019-06-26T06:27:31.983Z,101951.94
2019-06-26T06:28:36.975Z,101949.11
2019-06-26T06:29:42.569Z,101954.45
2019-06-26T06:30:47.675Z,101953.52
2019-06-26T06:31:53.220Z,101955.92
2019-06-26T06:32:58.327Z,101956.91
2019-06-26T06:34:04.225Z,101969.06
2019-06-26T06:35:09.764Z,101956.27
2019-06-26T06:36:15.924Z,101956.10
2019-06-26T06:37:20.897Z,101959.77
2019-06-26T06:38:26.693Z,101959.88
2019-06-26T06:39:32.163Z,101955.59
2019-06-26T06:40:37.854Z,101956.53
2019-06-26T06:41:43.578Z,101952.73
2019-06-26T06:42:49.332Z,101954.33
2019-06-26T06:43:54.553Z,101955.89
2019-06-26T06:45:00.150Z,101957.48
2019-06-26T06:46:05.290Z,101961.45
2019-06-26T06:47:10.884Z,101960.63
2019-06-26T06:48:16.129Z,101958.42
2019-06-26T06:49:21.985Z,101964.17
2019-06-26T06:50:27.079Z,101962.50
2019-06-26T06:51:32.901Z,101963.44
2019-06-26T06:52:38.224Z,101968.71
2019-06-26T06:53:43.880Z,101961.36
2019-06-26T06:54:49.114Z,101969.45
2019-06-26T06:55:55.576Z,101970.72
2019-06-26T06:57:00.662Z,101969.97
2019-06-26T06:58:06.256Z,101976.37
2019-06-26T06:59:11.280Z,101965.44
2019-06-26T07:00:17.416Z,101972.79
2019-06-26T07:01:22.417Z,101968.08
2019-06-26T07:02:27.899Z,101974.91
2019-06-26T07:03:32.869Z,101969.21
2019-06-26T07:04:38.383Z,101977.73
2019-06-26T07:05:43.502Z,101979.75
2019-06-26T07:06:49.113Z,101976.69
2019-06-26T07:07:54.175Z,101976.05
2019-06-26T07:09:00.062Z,101977.55
2019-06-26T07:10:05.282Z,101976.61
2019-06-26T07:11:11.398Z,101977.84
2019-06-26T07:12:16.804Z,101973.75
2019-06-26T07:13:22.394Z,101983.44
2019-06-26T07:14:27.474Z,101976.61
2019-06-26T07:15:33.134Z,101975.23
2019-06-26T07:16:38.254Z,101983.86
2019-06-26T07:17:44.583Z,101983.95
2019-06-26T07:18:49.715Z,101980.79
2019-06-26T07:19:55.442Z,101985.50
2019-06-26T07:21:00.623Z,101985.59
2019-06-26T07:22:07.414Z,101985.72
2019-06-26T07:23:12.569Z,101987.09
2019-06-26T07:24:18.167Z,101986.66
2019-06-26T07:25:23.156Z,101991.47
2019-06-26T07:26:28.786Z,101987.49
2019-06-26T07:27:33.822Z,101992.20
2019-06-26T07:28:39.337Z,101989.27
2019-06-26T07:29:44.769Z,101995.26
2019-06-26T07:30:50.242Z,101993.89
2019-06-26T07:31:55.253Z,101994.73
2019-06-26T07:33:01.024Z,101995.05
2019-06-26T07:34:06.774Z,101998.85
2019-06-26T07:35:14.206Z,102000.83
2019-06-26T07:36:19.087Z,102004.50
2019-06-26T07:37:24.573Z,102001.02
2019-06-26T07:38:29.861Z,102003.97
2019-06-26T07:39:35.510Z,102007.12
2019-06-26T07:40:40.490Z,102007.20
2019-06-26T07:41:46.053Z,102008.05
2019-06-26T07:42:51.433Z,102009.94
2019-06-26T07:43:57.443Z,102015.09
2019-06-26T07:45:02.442Z,102011.73
2019-06-26T07:46:07.998Z,102013.63
2019-06-26T07:47:23.205Z,102012.48
2019-06-26T07:48:20.600Z,102007.75
2019-06-26T07:49:25.659Z,102012.89
2019-06-26T07:50:32.475Z,102007.75
2019-06-26T07:51:37.974Z,102012.17
2019-06-26T07:52:43.805Z,102014.15
2019-06-26T07:53:49.527Z,102011.73
2019-06-26T07:54:55.494Z,102017.20
2019-06-26T07:56:00.545Z,102012.27
2019-06-26T07:57:06.601Z,102018.05
2019-06-26T07:58:11.552Z,102019.19
2019-06-26T07:59:17.129Z,102018.14
2019-06-26T08:00:22.258Z,102029.08
2019-06-26T08:01:28.250Z,102016.78
2019-06-26T08:02:33.104Z,102021.31
2019-06-26T08:03:38.678Z,102027.09
2019-06-26T08:04:44.213Z,102020.78
2019-06-26T08:05:50.249Z,102027.09
2019-06-26T08:06:55.690Z,102021.39
2019-06-26T08:08:01.404Z,102023.17
2019-06-26T08:09:07.142Z,102021.29
2019-06-26T08:10:13.043Z,102021.06
2019-06-26T08:11:17.941Z,102024.87
2019-06-26T08:12:23.532Z,102023.50
2019-06-26T08:13:28.422Z,102026.66
2019-06-26T08:14:34.331Z,102021.39
2019-06-26T08:15:39.559Z,102026.87
2019-06-26T08:16:45.239Z,102028.46
2019-06-26T08:18:00.720Z,102026.77
2019-06-26T08:18:57.923Z,102023.95
2019-06-26T08:20:02.921Z,102027.20
2019-06-26T08:21:12.520Z,102029.09
2019-06-26T08:22:15.560Z,102026.55
2019-06-26T08:23:21.223Z,102028.67
2019-06-26T08:24:26.253Z,102020.27
2019-06-26T08:25:31.854Z,102029.29
2019-06-26T08:26:37.175Z,102025.52
2019-06-26T08:27:42.656Z,102027.20
2019-06-26T08:28:47.761Z,102030.27
2019-06-26T08:29:53.860Z,102029.19
2019-06-26T08:30:59.074Z,102036.02
2019-06-26T08:32:04.656Z,102038.55
2019-06-26T08:33:09.688Z,102034.74
2019-06-26T08:34:15.376Z,102040.53
2019-06-26T08:35:20.638Z,102038.12
2019-06-26T08:36:26.215Z,102036.75
2019-06-26T08:37:31.115Z,102034.87
2019-06-26T08:38:36.717Z,102040.75
2019-06-26T08:39:41.703Z,102036.42
2019-06-26T08:40:47.505Z,102035.70
2019-06-26T08:41:52.361Z,102033.25
2019-06-26T08:42:58.087Z,102044.88
2019-06-26T08:44:03.044Z,102041.91
2019-06-26T08:45:09.256Z,102039.17
2019-06-26T08:46:14.753Z,102037.28
2019-06-26T08:47:20.309Z,102041.38
2019-06-26T08:48:38.790Z,102038.97
2019-06-26T08:49:32.732Z,102043.59
2019-06-26T08:50:37.673Z,102044.12
2019-06-26T08:51:43.263Z,102041.91
2019-06-26T08:52:48.295Z,102043.59
2019-06-26T08:53:53.953Z,102045.48
2019-06-26T08:54:58.958Z,102051.27
2019-06-26T08:56:04.536Z,102051.05
2019-06-26T08:57:09.513Z,102052.64
2019-06-26T08:58:15.387Z,102048.22
2019-06-26T08:59:20.428Z,102044.88
2019-06-26T09:00:26.191Z,102050.34
2019-06-26T09:01:31.133Z,102051.38
2019-06-26T09:02:36.808Z,102045.98
2019-06-26T09:03:42.202Z,102046.22
2019-06-26T09:04:47.764Z,102043.69
2019-06-26T09:05:52.688Z,102037.28
2019-06-26T09:06:58.293Z,102042.75
2019-06-26T09:08:03.501Z,102040.86
2019-06-26T09:09:09.112Z,102036.44
2019-06-26T09:10:14.949Z,102039.59
2019-06-26T09:11:20.800Z,102035.50
2019-06-26T09:12:25.769Z,102030.13
2019-06-26T09:13:31.268Z,102037.89
2019-06-26T09:14:36.197Z,102032.98
2019-06-26T09:15:42.069Z,102037.17
2019-06-26T09:16:47.438Z,102033.16
2019-06-26T09:17:52.973Z,102033.61
2019-06-26T09:18:57.896Z,102032.98
2019-06-26T09:20:03.496Z,102038.02
2019-06-26T09:21:08.452Z,102030.95
2019-06-26T09:22:14.220Z,102030.75
2019-06-26T09:23:19.129Z,102031.36
2019-06-26T09:24:24.664Z,102024.43
2019-06-26T09:25:29.991Z,102032.41
2019-06-26T09:26:35.571Z,102033.25
2019-06-26T09:27:40.497Z,102028.95
2019-06-26T09:28:46.185Z,102033.14
2019-06-26T09:29:51.188Z,102026.50
2019-06-26T09:30:56.966Z,102030.41
2019-06-26T09:32:02.257Z,102030.30
2019-06-26T09:33:08.230Z,102028.49
2019-06-26T09:34:13.269Z,102035.94
2019-06-26T09:35:19.588Z,102032.77
2019-06-26T09:36:24.724Z,102030.36
2019-06-26T09:37:30.290Z,102034.98
2019-06-26T09:38:35.258Z,102033.94
2019-06-26T09:39:40.934Z,102034.45
2019-06-26T09:40:45.854Z,102030.55
2019-06-26T09:41:51.501Z,102033.84
2019-06-26T09:42:56.490Z,102033.84
2019-06-26T09:44:02.313Z,102035.50
2019-06-26T09:45:07.311Z,102037.20
2019-06-26T09:46:12.943Z,102027.01
2019-06-26T09:47:18.223Z,102027.30
2019-06-26T09:48:23.893Z,102034.98
2019-06-26T09:49:28.879Z,102040.45
2019-06-26T09:50:36.923Z,102037.40
2019-06-26T09:51:42.050Z,102031.41
2019-06-26T09:52:47.616Z,102034.98
2019-06-26T09:53:52.699Z,102037.52
2019-06-26T09:54:58.255Z,102040.55
2019-06-26T09:56:03.281Z,102036.56
2019-06-26T09:57:08.792Z,102042.84
2019-06-26T09:58:13.927Z,102035.71
2019-06-26T09:59:19.736Z,102039.50
2019-06-26T10:00:27.992Z,102041.62
2019-06-26T10:01:33.788Z,102031.41
2019-06-26T10:02:38.823Z,102034.14
2019-06-26T10:03:45.410Z,102033.84
2019-06-26T10:04:51.283Z,102034.45
2019-06-26T10:05:57.212Z,102034.78
2019-06-26T10:07:02.170Z,102032.33
2019-06-26T10:08:07.737Z,102037.37
2019-06-26T10:09:12.664Z,102036.94
2019-06-26T10:10:19.293Z,102036.20
2019-06-26T10:11:24.254Z,102045.55
2019-06-26T10:12:29.793Z,102044.83
2019-06-26T10:13:34.978Z,102050.06
2019-06-26T10:14:47.076Z,102049.02
2019-06-26T10:15:47.110Z,102049.63
2019-06-26T10:16:52.819Z,102051.64
2019-06-26T10:17:57.709Z,102053.30
2019-06-26T10:19:10.087Z,102050.87
2019-06-26T10:20:10.640Z,102051.20
2019-06-26T10:21:16.498Z,102052.89
2019-06-26T10:22:21.660Z,102054.78
2019-06-26T10:23:27.331Z,102057.72
2019-06-26T10:24:32.620Z,102060.45
2019-06-26T10:25:38.136Z,102063.43
2019-06-26T10:26:43.335Z,102060.58
2019-06-26T10:27:49.106Z,102057.23
2019-06-26T10:28:54.027Z,102059.96
2019-06-26T10:29:59.547Z,102060.81
2019-06-26T10:31:04.683Z,102062.27
2019-06-26T10:32:10.949Z,102065.32
2019-06-26T10:33:16.066Z,102061.50
2019-06-26T10:34:21.515Z,102058.48
2019-06-26T10:35:26.527Z,102061.22
2019-06-26T10:36:32.014Z,102065.32
2019-06-26T10:37:36.930Z,102065.93
2019-06-26T10:38:42.527Z,102060.78
2019-06-26T10:39:48.212Z,102066.58
2019-06-26T10:40:54.044Z,102066.58
2019-06-26T10:41:58.973Z,102065.09
2019-06-26T10:43:04.622Z,102061.94
2019-06-26T10:44:10.265Z,102066.80
2019-06-26T10:45:16.023Z,102066.48
2019-06-26T10:46:21.006Z,102068.92
2019-06-26T10:47:26.951Z,102063.13
2019-06-26T10:48:31.976Z,102073.76
2019-06-26T10:49:37.646Z,102063.66
2019-06-26T10:50:49.398Z,102063.05
2019-06-26T10:51:49.820Z,102061.88
2019-06-26T10:52:55.122Z,102069.05
2019-06-26T10:54:00.818Z,102065.02
2019-06-26T10:55:05.938Z,102070.59
2019-06-26T10:56:11.559Z,102067.97
2019-06-26T10:57:16.812Z,102082.35
2019-06-26T10:58:22.672Z,102074.78
2019-06-26T10:59:27.750Z,102072.34
2019-06-26T11:00:33.392Z,102076.23
2019-06-26T11:01:38.696Z,102078.33
2019-06-26T11:02:44.243Z,102070.56
2019-06-26T11:03:49.134Z,102075.19
2019-06-26T11:04:54.608Z,102073.20
2019-06-26T11:05:59.583Z,102076.79
2019-06-26T11:07:05.148Z,102075.42
2019-06-26T11:08:10.343Z,102070.56
2019-06-26T11:09:16.106Z,102061.63
2019-06-26T11:10:22.071Z,102063.40
2019-06-26T11:11:27.657Z,102064.66
2019-06-26T11:12:33.102Z,102066.14
2019-06-26T11:13:38.843Z,102067.91
2019-06-26T11:14:44.305Z,102062.20
2019-06-26T11:15:50.348Z,102059.55
2019-06-26T11:16:55.237Z,102055.23
2019-06-26T11:18:00.839Z,102050.17
2019-06-26T11:19:05.974Z,102057.94
2019-06-26T11:20:11.949Z,102057.19
2019-06-26T11:21:16.881Z,102054.45
2019-06-26T11:22:22.661Z,102053.84
2019-06-26T11:23:27.693Z,102048.56
2019-06-26T11:24:33.453Z,102048.28
2019-06-26T11:25:38.476Z,102052.91
2019-06-26T11:26:44.272Z,102058.06
2019-06-26T11:27:49.223Z,102058.38
2019-06-26T11:28:54.711Z,102064.30
2019-06-26T11:29:59.803Z,102056.81
2019-06-26T11:31:05.659Z,102059.55
2019-06-26T11:32:10.635Z,102062.28
2019-06-26T11:33:16.128Z,102062.09
2019-06-26T11:34:21.567Z,102060.19
2019-06-26T11:35:27.313Z,102062.93
2019-06-26T11:36:32.547Z,102057.13
2019-06-26T11:37:38.557Z,102064.30
2019-06-26T11:38:43.509Z,102060.48
2019-06-26T11:39:49.028Z,102071.75
2019-06-26T11:40:54.219Z,102067.33
2019-06-26T11:41:59.836Z,102062.93
2019-06-26T11:43:04.810Z,102061.56
2019-06-26T11:44:10.399Z,102062.61
2019-06-26T11:45:15.591Z,102059.55
2019-06-26T11:46:21.313Z,102062.93
2019-06-26T11:47:26.314Z,102057.45
2019-06-26T11:48:31.978Z,102065.95
2019-06-26T11:49:36.898Z,102066.59
2019-06-26T11:50:42.510Z,102062.48
2019-06-26T11:51:47.635Z,102066.36
2019-06-26T11:52:53.630Z,102059.84
2019-06-26T11:53:59.183Z,102069.63
2019-06-26T11:55:04.928Z,102059.75
2019-06-26T11:56:10.901Z,102061.13
2019-06-26T11:57:16.610Z,102065.23
2019-06-26T11:58:21.568Z,102061.56
2019-06-26T11:59:27.333Z,102059.55
2019-06-26T12:00:32.328Z,102060.92
2019-06-26T12:01:37.799Z,102052.30
2019-06-26T12:02:42.716Z,102058.62
2019-06-26T12:03:48.700Z,102062.12
2019-06-26T12:04:53.612Z,102052.86
2019-06-26T12:06:15.162Z,102059.70
2019-06-26T12:07:05.884Z,102051.17
2019-06-26T12:08:11.397Z,102049.56
2019-06-26T12:09:16.387Z,102051.05
2019-06-26T12:10:22.425Z,102046.50
2019-06-26T12:11:27.318Z,102052.59
2019-06-26T12:12:32.821Z,102051.30
2019-06-26T12:13:37.781Z,102051.30
2019-06-26T12:14:43.319Z,102057.30
2019-06-26T12:15:48.308Z,102053.52
2019-06-26T12:16:53.982Z,102062.58
2019-06-26T12:17:58.880Z,102052.15
2019-06-26T12:19:04.592Z,102051.94
2019-06-26T12:20:18.386Z,102049.41
2019-06-26T12:21:17.225Z,102044.25
2019-06-26T12:22:22.138Z,102054.68
2019-06-26T12:23:27.685Z,102050.58
2019-06-26T12:24:32.685Z,102053.84
2019-06-26T12:25:38.540Z,102055.29
2019-06-26T12:26:43.883Z,102059.48
2019-06-26T12:27:49.603Z,102056.02
2019-06-26T12:28:54.558Z,102055.78
2019-06-26T12:30:00.082Z,102052.19